Virginia Beach, VA

2:43 PM EST on February 14, 2016 (GMT -0500)
Christopher Farms | | Change Station
CLOSE
Current Station
Personal Weather Station
Location: Virginia Beach, VA
Elevation: 33 ft
Nearby Weather Stations

Elev 33 ft 36.76 °N, 76.06 °W | Updated 26 seconds ago

Partly Cloudy
Partly Cloudy
30.0 °F
Feels Like 30 °F
N
0.4
Wind Variable Wind from SW
Gusts 2.5 mph

Today
High -- | Low -- °F
--% Chance of Precip.
Yesterday
High -- | Low -- °F
Precip. -- in
Pressure 30.54 in
Visibility 10.0 miles
Clouds Few 3500 ft
Mostly Cloudy 25000 ft
Windchill 30 °F
Dew Point 4 °F
Humidity 32%
Rainfall 0.00 in
Snow Depth Not available.
6:54 AM 5:43 PM
Waxing Crescent, 44% visible
METAR KNTU 141856Z 35008KT 10SM FEW035 BKN250 M02/M15 A3053 RMK AO2 SLP341 T10221150
Pressure 30.54 in
Visibility 10.0 miles
Clouds Few 3500 ft
Mostly Cloudy 25000 ft
Windchill 30 °F
Dew Point 4 °F
Humidity 32%
Rainfall 0.00 in
Snow Depth Not available.
6:54 AM 5:43 PM
Waxing Crescent, 44% visible
METAR KNTU 141856Z 35008KT 10SM FEW035 BKN250 M02/M15 A3053 RMK AO2 SLP341 T10221150

10-Day Weather Forecast

Almanac

Astronomy

Feb. 14, 2016 Rise Set
Actual Time
Civil Twilight
Nautical Twilight
Astronomical Twilight
Moon
Length of Visible Light
Length of Day
Tomorrow will be .
, % of the Moon is Illuminated

Today's Extremes

State Highs State Lows

Community

WunderPhotos

Upload Photos

1,892,879 photos uploaded!

WunderBlog® & News

Nearby

Air Quality

  Air Quality AQ Index Pollutant
Not available.

Snow Depth

Station Depth Elevation

Earthquake Activity

City Distance Mag. Time & Date
Minimum magnitude displayed is 2.5.

Coastal Water Temperatures

Place Temperature

Stations

Nearby Weather Stations

Station Location Temp. Windchill Dew Point Humidity Wind Precip. Elev Updated Type
                   

Watches & Warnings

There are currently no watches in effect.